Time;durP1;ratioP1;P1;durP2;ratioP2;P2;SDS_P1;SDS_P2;PMS_P1;PMS_P2;Temp;Humidity;BMP_temperature;BMP_pressure;BME280_temperature;BME280_humidity;BME280_pressure;Samples;Min_cycle;Max_cycle;Signal;HPM_P1;HPM_P2
2021/12/20 00:00:10;;;;;;;14.97;6.17;;;;;;;11.16;29.79;96372.38;5038760;28;20142;-71
2021/12/20 00:02:40;;;;;;;13.17;6.67;;;;;;;11.00;30.19;96375.84;5088915;28;20043;-72
2021/12/20 00:05:07;;;;;;;13.07;6.17;;;;;;;10.93;29.75;96369.09;5072611;28;20135;-73
2021/12/20 00:07:34;;;;;;;10.50;5.67;;;;;;;10.86;29.81;96371.88;5045992;28;20416;-73
2021/12/20 00:10:01;;;;;;;11.97;6.07;;;;;;;10.85;30.48;96374.78;5055518;28;20043;-72
2021/12/20 00:12:27;;;;;;;11.90;5.93;;;;;;;10.54;29.51;96381.38;5088461;28;20131;-73
2021/12/20 00:14:54;;;;;;;10.33;6.00;;;;;;;10.54;30.97;96377.91;5050110;28;21002;-72
2021/12/20 00:17:20;;;;;;;10.00;5.77;;;;;;;10.65;30.34;96380.53;5049459;28;20036;-73
2021/12/20 00:19:47;;;;;;;13.07;6.17;;;;;;;10.72;30.31;96394.44;5071848;28;20040;-74
2021/12/20 00:22:13;;;;;;;10.33;5.93;;;;;;;10.49;29.37;96375.97;5055523;28;20048;-74
2021/12/20 00:24:40;;;;;;;11.73;5.50;;;;;;;10.62;28.15;96398.75;5071685;28;20136;-75
2021/12/20 00:27:08;;;;;;;9.40;4.97;;;;;;;10.52;30.43;96393.28;5054094;28;20086;-74
2021/12/20 00:29:37;;;;;;;11.20;5.37;;;;;;;11.09;29.44;96400.16;5053528;28;20130;-73
2021/12/20 00:32:04;;;;;;;9.10;4.37;;;;;;;10.64;30.67;96394.03;5055761;28;20507;-75
2021/12/20 00:34:30;;;;;;;7.17;5.23;;;;;;;10.47;29.31;96415.19;5055451;28;20048;-73
2021/12/20 00:37:02;;;;;;;9.17;4.93;;;;;;;10.44;28.60;96410.34;5074075;28;20527;-74
2021/12/20 00:42:14;;;;;;;8.73;4.70;;;;;;;10.38;29.65;96413.16;5078834;28;20060;-73
2021/12/20 00:44:41;;;;;;;10.07;4.27;;;;;;;10.34;29.71;96407.50;5075944;28;20476;-75
2021/12/20 00:47:07;;;;;;;11.63;4.17;;;;;;;10.32;29.41;96420.19;5042354;28;20040;-72
2021/12/20 00:49:34;;;;;;;8.80;4.50;;;;;;;10.18;29.42;96419.63;5075704;28;20047;-74
2021/12/20 00:52:00;;;;;;;7.87;4.40;;;;;;;10.14;29.68;96421.16;5059013;28;20043;-74
2021/12/20 00:54:26;;;;;;;7.90;4.53;;;;;;;9.94;28.89;96399.47;5075661;28;20056;-74
2021/12/20 00:56:53;;;;;;;7.30;4.13;;;;;;;9.93;28.88;96432.31;5043074;28;20036;-73
2021/12/20 00:59:19;;;;;;;7.37;4.43;;;;;;;9.87;30.51;96404.09;5075562;28;20152;-73
2021/12/20 01:01:45;;;;;;;8.00;4.00;;;;;;;10.07;30.47;96439.03;5058675;28;20047;-74
2021/12/20 01:04:11;;;;;;;6.83;4.00;;;;;;;10.06;29.72;96442.69;5075463;28;20050;-73
2021/12/20 01:06:37;;;;;;;6.27;4.23;;;;;;;10.26;29.54;96450.28;5075317;28;20036;-74
2021/12/20 01:09:04;;;;;;;7.13;4.20;;;;;;;10.36;28.23;96455.00;5075602;28;20086;-74
2021/12/20 01:11:34;;;;;;;7.20;4.27;;;;;;;10.05;28.20;96451.69;5042111;28;20124;-73
2021/12/20 01:14:00;;;;;;;6.25;4.13;;;;;;;9.93;29.51;96445.56;5059223;28;20039;-74
2021/12/20 01:16:32;;;;;;;7.03;4.03;;;;;;;9.71;30.04;96423.34;5075241;28;20142;-74
2021/12/20 01:18:58;;;;;;;11.03;4.47;;;;;;;10.01;28.25;96447.88;5042358;28;20040;-73
2021/12/20 01:21:26;;;;;;;6.00;4.03;;;;;;;9.96;28.40;96462.88;5058585;28;20051;-73
2021/12/20 01:23:52;;;;;;;7.70;4.20;;;;;;;10.01;29.01;96462.97;5075559;28;20047;-72
2021/12/20 01:26:19;;;;;;;5.13;3.43;;;;;;;9.74;30.05;96464.47;5041479;28;20039;-71
2021/12/20 01:28:45;;;;;;;7.73;3.70;;;;;;;9.86;30.12;96465.28;5057884;28;20044;-73
2021/12/20 01:31:11;;;;;;;5.93;3.63;;;;;;;9.94;30.07;96467.59;5058377;28;20051;-71
2021/12/20 01:33:38;;;;;;;5.23;3.33;;;;;;;9.72;30.56;96472.66;5058141;28;20040;-72
2021/12/20 01:36:04;;;;;;;5.10;3.13;;;;;;;9.71;30.49;96479.00;5058389;28;20573;-73
2021/12/20 01:38:31;;;;;;;7.37;4.03;;;;;;;9.65;30.40;96466.66;5058173;28;20089;-72
2021/12/20 01:40:57;;;;;;;5.90;3.53;;;;;;;9.57;30.45;96485.53;5041980;28;20400;-76
2021/12/20 01:43:24;;;;;;;4.87;3.40;;;;;;;9.42;30.50;96452.56;5091705;28;20139;-74
2021/12/20 01:45:50;;;;;;;4.17;3.10;;;;;;;9.51;30.92;96481.16;5057932;28;20036;-73
2021/12/20 01:48:19;;;;;;;4.83;3.30;;;;;;;9.57;29.51;96490.84;5057230;28;20050;-72
2021/12/20 01:51:01;;;;;;;5.50;3.40;;;;;;;9.73;30.04;96482.19;5058301;28;20040;-73
2021/12/20 01:53:28;;;;;;;4.20;2.90;;;;;;;9.45;30.88;96484.72;5059903;28;20062;-77
2021/12/20 01:55:56;;;;;;;6.03;3.63;;;;;;;9.60;30.20;96500.16;5058111;28;20226;-71
2021/12/20 01:58:23;;;;;;;3.90;3.00;;;;;;;9.55;29.92;96506.13;5041131;28;20040;-72
2021/12/20 02:03:39;;;;;;;6.23;3.63;;;;;;;9.64;30.06;96506.63;5060610;28;20036;-73
2021/12/20 02:06:11;;;;;;;6.28;3.30;;;;;;;9.39;30.49;96487.44;5042159;28;20222;-73
2021/12/20 02:08:37;;;;;;;3.90;2.53;;;;;;;9.47;30.61;96522.34;5059435;28;20105;-71
2021/12/20 02:11:09;;;;;;;4.77;2.70;;;;;;;9.45;30.03;96505.06;5041919;28;20478;-72
2021/12/20 02:13:37;;;;;;;4.20;2.53;;;;;;;9.45;30.12;96516.50;5058468;28;20072;-74
2021/12/20 02:16:06;;;;;;;17.40;8.73;;;;;;;9.64;29.14;96539.22;5058065;28;20091;-71
2021/12/20 02:18:33;;;;;;;4.83;2.97;;;;;;;9.52;30.53;96533.06;5041044;28;20108;-73
2021/12/20 02:21:00;;;;;;;4.70;3.03;;;;;;;9.22;28.87;96508.47;5057591;28;20067;-74
2021/12/20 02:23:26;;;;;;;5.47;2.97;;;;;;;9.40;29.91;96536.72;5041022;28;20052;-73
2021/12/20 02:25:53;;;;;;;3.53;2.80;;;;;;;9.26;30.48;96536.09;5040852;28;20047;-72
2021/12/20 02:28:21;;;;;;;6.37;2.73;;;;;;;9.58;29.27;96545.41;5057354;28;20039;-73
2021/12/20 02:38:47;;;;;;;3.67;2.37;;;;;;;9.64;29.26;96564.91;5090725;28;20075;-72
2021/12/20 02:41:24;;;;;;;4.10;2.30;;;;;;;9.86;29.67;96558.84;5073758;28;20167;-72
2021/12/20 02:43:57;;;;;;;7.73;3.83;;;;;;;9.52;28.11;96572.81;5073916;28;20048;-69
2021/12/20 02:47:15;;;;;;;3.53;2.90;;;;;;;9.58;28.49;96576.41;5056922;28;20380;-69
2021/12/20 02:49:19;;;;;;;3.40;2.60;;;;;;;9.75;28.74;96569.41;5076094;28;20040;-68
2021/12/20 02:51:48;;;;;;;4.00;2.20;;;;;;;9.44;30.24;96581.06;5056658;28;20593;-71
2021/12/20 02:54:14;;;;;;;4.53;3.10;;;;;;;9.23;29.19;96583.41;5073080;28;20409;-71
2021/12/20 02:56:42;;;;;;;3.83;2.33;;;;;;;9.49;30.19;96578.56;5056390;28;20561;-72
2021/12/20 02:59:09;;;;;;;3.23;2.63;;;;;;;9.45;29.35;96585.34;5073665;28;20040;-74
2021/12/20 03:01:37;;;;;;;6.33;2.67;;;;;;;9.46;29.40;96583.50;5055612;28;20075;-71
2021/12/20 03:04:03;;;;;;;6.90;2.73;;;;;;;9.35;30.43;96589.56;5056580;28;20052;-73
2021/12/20 03:06:37;;;;;;;5.00;2.90;;;;;;;9.76;29.24;96593.03;5056819;28;20036;-68
2021/12/20 03:09:05;;;;;;;6.30;2.83;;;;;;;9.32;29.34;96593.47;5039651;28;20516;-69
2021/12/20 03:11:31;;;;;;;3.40;2.27;;;;;;;9.09;30.75;96608.41;5073277;28;20048;-68
2021/12/20 03:14:10;;;;;;;5.60;2.87;;;;;;;9.47;29.51;96601.03;5056562;28;20043;-68
2021/12/20 03:16:36;;;;;;;3.57;2.47;;;;;;;9.24;29.57;96612.28;5091175;28;20040;-66
2021/12/20 03:19:04;;;;;;;4.33;2.80;;;;;;;9.43;29.28;96613.06;5072957;28;20389;-73
2021/12/20 03:21:30;;;;;;;3.33;2.57;;;;;;;9.26;30.42;96617.38;5056125;28;20040;-67
2021/12/20 03:23:57;;;;;;;3.90;2.67;;;;;;;9.17;29.91;96605.47;5072803;28;20093;-73
2021/12/20 03:26:23;;;;;;;11.03;2.93;;;;;;;9.25;30.52;96619.22;5051882;28;20167;-73
2021/12/20 03:28:51;;;;;;;3.20;2.43;;;;;;;9.37;30.50;96625.38;5102541;28;20098;-74
2021/12/20 03:31:18;;;;;;;16.90;2.80;;;;;;;8.90;30.58;96533.56;5053903;28;20043;-74
2021/12/20 03:33:44;;;;;;;3.87;2.60;;;;;;;9.24;30.45;96603.56;5087132;28;20106;-75
2021/12/20 03:36:11;;;;;;;2.93;2.30;;;;;;;9.33;30.79;96621.53;5053199;28;20526;-78
2021/12/20 03:38:37;;;;;;;4.03;2.27;;;;;;;9.42;30.46;96625.53;5053617;28;20047;-71
2021/12/20 03:41:03;;;;;;;5.30;2.93;;;;;;;9.43;30.05;96640.38;5054019;28;20442;-70
2021/12/20 03:43:31;;;;;;;2.77;2.07;;;;;;;9.23;30.12;96639.81;5053720;28;20048;-71
2021/12/20 03:45:58;;;;;;;4.10;2.60;;;;;;;9.37;28.92;96654.50;5087270;28;20051;-72
2021/12/20 03:48:26;;;;;;;3.13;2.23;;;;;;;9.38;30.03;96634.94;5053142;28;20050;-72
2021/12/20 03:50:52;;;;;;;2.77;2.27;;;;;;;9.01;28.69;96643.94;5069779;28;20052;-72
2021/12/20 03:53:19;;;;;;;4.27;2.40;;;;;;;9.11;29.88;96652.19;5070047;28;20540;-73
2021/12/20 03:55:45;;;;;;;4.37;2.50;;;;;;;8.97;28.69;96653.34;5053107;28;20503;-73
2021/12/20 03:58:11;;;;;;;4.03;2.53;;;;;;;8.88;29.14;96675.84;5070107;28;20040;-73
2021/12/20 04:00:38;;;;;;;4.23;2.30;;;;;;;8.66;28.68;96663.25;5070030;28;20040;-71
2021/12/20 04:03:09;;;;;;;3.23;2.20;;;;;;;8.56;29.61;96666.38;5054520;28;20519;-72
2021/12/20 04:05:36;;;;;;;3.17;2.30;;;;;;;8.66;29.93;96674.63;5035948;28;20134;-71
2021/12/20 04:08:02;;;;;;;4.40;2.27;;;;;;;8.57;29.35;96668.00;5069791;28;20070;-72
2021/12/20 04:10:28;;;;;;;2.87;2.17;;;;;;;8.67;29.68;96686.84;5069869;28;20036;-72
2021/12/20 04:12:55;;;;;;;3.10;2.17;;;;;;;8.51;29.62;96679.44;5052463;28;20043;-73
2021/12/20 04:15:21;;;;;;;4.63;2.43;;;;;;;8.70;29.76;96691.69;5053081;28;20036;-73
2021/12/20 04:17:48;;;;;;;3.40;2.20;;;;;;;8.59;30.25;96697.69;5048235;28;20105;-74
2021/12/20 04:20:14;;;;;;;3.80;2.30;;;;;;;8.32;30.78;96696.28;5064103;28;20049;-72
2021/12/20 04:22:40;;;;;;;4.50;2.80;;;;;;;8.26;28.75;96694.50;5067592;28;20051;-72
2021/12/20 04:25:06;;;;;;;2.77;2.33;;;;;;;8.42;28.08;96707.19;5065543;28;20464;-66
2021/12/20 04:27:33;;;;;;;3.67;2.70;;;;;;;8.46;27.60;96703.06;5066075;28;20131;-74
2021/12/20 04:29:58;;;;;;;2.80;2.17;;;;;;;8.04;29.69;96709.06;5065584;28;20423;-72
2021/12/20 04:32:24;;;;;;;4.77;2.80;;;;;;;7.92;29.15;96708.09;5066737;28;20102;-71
2021/12/20 04:34:50;;;;;;;5.63;2.63;;;;;;;8.03;29.05;96725.94;5064347;28;20056;-73
2021/12/20 04:37:16;;;;;;;3.53;2.77;;;;;;;8.08;30.17;96718.19;5067885;28;20123;-71
2021/12/20 04:39:42;;;;;;;3.10;2.33;;;;;;;8.05;29.46;96722.06;5085723;28;20063;-71
2021/12/20 04:42:08;;;;;;;4.20;2.43;;;;;;;8.19;29.57;96734.19;5068816;28;20135;-75
2021/12/20 04:44:37;;;;;;;3.37;2.47;;;;;;;8.62;28.66;96736.13;5086994;28;20138;-72
2021/12/20 04:47:03;;;;;;;3.67;2.53;;;;;;;8.05;28.43;96742.38;5087082;28;20036;-73
2021/12/20 04:49:35;;;;;;;2.90;2.30;;;;;;;7.73;29.48;96741.56;5102345;28;20047;-70
2021/12/20 04:52:01;;;;;;;4.87;2.27;;;;;;;7.75;30.59;96736.06;5085829;28;20048;-70
2021/12/20 04:54:27;;;;;;;4.40;2.70;;;;;;;7.73;29.62;96743.38;5086821;28;20551;-69
2021/12/20 04:56:53;;;;;;;3.10;2.10;;;;;;;7.71;29.87;96740.13;5086470;28;20133;-70
2021/12/20 04:59:18;;;;;;;4.00;2.60;;;;;;;7.83;29.13;96756.94;5068609;28;20043;-64
2021/12/20 05:01:44;;;;;;;2.37;2.17;;;;;;;7.80;28.27;96757.34;5086413;28;20102;-67
2021/12/20 05:04:10;;;;;;;6.43;2.67;;;;;;;7.67;29.79;96760.06;5086688;28;20087;-70
2021/12/20 05:06:36;;;;;;;3.73;2.50;;;;;;;7.68;29.47;96766.97;5050213;28;20048;-72
2021/12/20 05:09:04;;;;;;;2.80;2.13;;;;;;;7.72;30.84;96761.03;5068184;28;20056;-72
2021/12/20 05:11:33;;;;;;;7.23;2.60;;;;;;;7.80;31.04;96767.91;5083882;28;20059;-72
2021/12/20 05:14:00;;;;;;;5.30;2.47;;;;;;;7.90;30.09;96781.50;5064116;28;20236;-70
2021/12/20 05:16:27;;;;;;;4.07;3.10;;;;;;;7.74;29.45;96752.91;5084123;28;20145;-73
2021/12/20 05:18:53;;;;;;;5.20;2.67;;;;;;;7.65;29.38;96783.22;5065743;28;20432;-70
2021/12/20 05:21:19;;;;;;;3.03;1.97;;;;;;;7.69;30.63;96787.06;5066766;28;20438;-70
2021/12/20 05:23:44;;;;;;;5.90;2.97;;;;;;;7.64;29.88;96800.09;5066898;28;20040;-70
2021/12/20 05:26:10;;;;;;;3.53;2.60;;;;;;;7.56;30.08;96795.84;5070075;28;20051;-71
2021/12/20 05:28:36;;;;;;;4.40;2.60;;;;;;;7.58;29.73;96800.94;5089984;28;20058;-68
2021/12/20 05:31:02;;;;;;;3.13;2.10;;;;;;;7.64;28.63;96805.38;5088833;28;20040;-74
2021/12/20 05:33:29;;;;;;;5.63;2.50;;;;;;;7.74;29.29;96811.84;5089998;28;20582;-70
2021/12/20 05:35:55;;;;;;;3.37;2.30;;;;;;;7.71;29.89;96825.47;5089737;28;20036;-69
2021/12/20 05:38:21;;;;;;;5.03;2.30;;;;;;;7.28;29.43;96819.06;5088221;28;20127;-70
2021/12/20 05:40:47;;;;;;;4.10;2.67;;;;;;;7.46;28.81;96826.34;5089648;28;20123;-68
2021/12/20 05:43:12;;;;;;;3.47;2.30;;;;;;;7.22;30.58;96824.34;5072053;28;20130;-68
2021/12/20 05:45:39;;;;;;;4.93;2.90;;;;;;;7.25;29.84;96789.63;5088810;28;20044;-69
2021/12/20 05:48:05;;;;;;;4.13;2.37;;;;;;;7.14;30.90;96832.47;5105330;28;20044;-70
2021/12/20 05:50:31;;;;;;;3.27;2.20;;;;;;;7.22;30.08;96840.19;5071453;28;20463;-70
2021/12/20 05:52:58;;;;;;;6.97;2.53;;;;;;;7.56;28.43;96848.69;5088519;28;20586;-68
2021/12/20 05:55:25;;;;;;;3.90;2.47;;;;;;;7.19;29.02;96845.88;5088723;28;20069;-68
2021/12/20 05:57:51;;;;;;;3.87;2.00;;;;;;;7.14;30.49;96856.22;5105220;28;20498;-68
2021/12/20 06:00:19;;;;;;;3.17;2.37;;;;;;;7.64;29.65;96837.06;5089367;28;20126;-69
2021/12/20 06:02:48;;;;;;;2.67;2.30;;;;;;;7.63;30.77;96861.84;5071004;28;20046;-68
2021/12/20 06:05:14;;;;;;;3.77;2.50;;;;;;;7.22;30.47;96867.41;5086737;28;20109;-69
2021/12/20 06:07:42;;;;;;;4.87;2.30;;;;;;;7.53;30.15;96872.03;5054922;28;20571;-67
2021/12/20 06:10:18;;;;;;;3.00;2.47;;;;;;;7.93;29.96;96870.91;5088911;28;20072;-68
2021/12/20 06:12:44;;;;;;;5.37;2.47;;;;;;;7.39;29.64;96884.44;5087592;28;20558;-68
2021/12/20 06:15:11;;;;;;;4.67;2.73;;;;;;;7.48;29.04;96892.94;5085187;28;20041;-67
2021/12/20 06:17:37;;;;;;;3.77;2.60;;;;;;;7.44;28.93;96892.53;5080517;28;20044;-70
2021/12/20 06:20:05;;;;;;;3.83;2.47;;;;;;;7.63;28.93;96902.28;5037844;28;20518;-71
2021/12/20 06:22:31;;;;;;;4.73;2.60;;;;;;;7.12;28.62;96887.31;5087959;28;20690;-71
2021/12/20 06:24:57;;;;;;;2.60;2.23;;;;;;;7.21;28.50;96908.00;5037566;28;20047;-69
2021/12/20 06:27:23;;;;;;;3.47;2.47;;;;;;;7.30;28.58;96911.25;5071570;28;20050;-71
2021/12/20 06:29:49;;;;;;;5.30;2.60;;;;;;;7.23;29.59;96905.16;5088225;28;20093;-72
2021/12/20 06:32:15;;;;;;;5.23;2.63;;;;;;;7.20;29.32;96913.47;5071123;28;20040;-72
2021/12/20 06:34:41;;;;;;;3.37;2.57;;;;;;;7.06;28.99;96888.13;5088863;28;20412;-68
2021/12/20 06:37:07;;;;;;;4.03;2.43;;;;;;;7.42;29.90;96928.09;5070824;28;20040;-70
2021/12/20 06:39:33;;;;;;;3.97;2.70;;;;;;;7.34;29.39;96913.28;5071164;28;20043;-71
2021/12/20 06:41:59;;;;;;;8.27;2.70;;;;;;;7.22;29.67;96892.97;5087721;28;20067;-73
2021/12/20 06:44:25;;;;;;;4.43;2.90;;;;;;;7.21;28.47;96904.56;5087640;28;20092;-68
2021/12/20 06:46:52;;;;;;;6.20;3.23;;;;;;;7.79;29.11;96943.28;5054345;28;20044;-71
2021/12/20 06:49:18;;;;;;;3.83;2.70;;;;;;;7.49;30.07;96948.19;5087011;28;20048;-71
2021/12/20 06:51:44;;;;;;;3.13;2.40;;;;;;;7.37;30.08;96928.72;5086972;28;20047;-72
2021/12/20 06:54:15;;;;;;;4.27;2.50;;;;;;;7.99;29.76;96952.00;5087830;28;20412;-70
2021/12/20 06:56:41;;;;;;;5.00;2.42;;;;;;;7.72;30.64;96955.72;5087798;28;20048;-68
2021/12/20 06:59:07;;;;;;;4.93;3.30;;;;;;;7.70;30.15;96955.09;5088995;28;20044;-73
2021/12/20 07:01:33;;;;;;;4.53;3.23;;;;;;;7.66;29.45;96965.25;5053241;28;20055;-70
2021/12/20 07:04:01;;;;;;;3.77;2.83;;;;;;;7.65;29.49;96965.47;5088692;28;20087;-71
2021/12/20 07:06:28;;;;;;;6.70;2.70;;;;;;;8.07;29.91;96967.63;5052855;28;20101;-72
2021/12/20 07:08:54;;;;;;;4.83;2.70;;;;;;;7.58;30.32;96965.44;5086955;28;20134;-71
2021/12/20 07:11:20;;;;;;;4.67;2.47;;;;;;;7.67;30.48;96974.78;5053110;28;20139;-71
2021/12/20 07:13:46;;;;;;;4.37;2.80;;;;;;;7.66;29.09;96980.28;5069493;28;20071;-72
2021/12/20 07:16:13;;;;;;;3.10;2.40;;;;;;;7.70;30.02;96982.34;5069561;28;20044;-69
2021/12/20 07:18:39;;;;;;;4.07;2.70;;;;;;;7.72;29.67;96990.06;5069949;28;20385;-69
2021/12/20 07:21:05;;;;;;;5.37;3.07;;;;;;;7.84;28.67;96996.34;5086800;28;20051;-69
2021/12/20 07:23:31;;;;;;;4.47;2.90;;;;;;;7.76;28.72;97007.94;5086630;28;20079;-69
2021/12/20 07:25:56;;;;;;;4.57;2.87;;;;;;;7.69;29.81;97001.00;5086329;28;20067;-68
2021/12/20 07:28:22;;;;;;;4.23;2.80;;;;;;;7.59;28.80;97003.25;5086273;28;20051;-69
2021/12/20 07:30:49;;;;;;;5.27;2.33;;;;;;;7.84;29.64;97007.69;5069250;28;20131;-69
2021/12/20 07:33:15;;;;;;;5.37;3.30;;;;;;;7.85;29.71;97009.34;5087607;28;20044;-67
2021/12/20 07:35:43;;;;;;;4.23;2.70;;;;;;;7.67;30.35;97003.84;5068345;28;20134;-68
2021/12/20 07:38:14;;;;;;;4.27;3.03;;;;;;;7.69;29.00;97016.84;5085775;28;20040;-69
2021/12/20 07:40:47;;;;;;;4.70;3.10;;;;;;;8.20;29.33;97031.84;5070321;28;20127;-68
2021/12/20 07:43:15;;;;;;;6.77;3.23;;;;;;;7.96;28.21;97035.16;5052809;28;20071;-68
2021/12/20 07:45:47;;;;;;;6.97;3.33;;;;;;;7.83;28.69;97029.03;5085506;28;20051;-69
2021/12/20 07:48:14;;;;;;;6.93;3.40;;;;;;;7.68;29.40;97018.69;5085620;28;20054;-69
2021/12/20 07:50:40;;;;;;;7.63;3.50;;;;;;;7.41;28.45;97026.81;5086662;28;20040;-69
2021/12/20 07:53:06;;;;;;;8.03;2.97;;;;;;;7.27;29.41;97041.81;5053117;28;20408;-69
2021/12/20 07:55:32;;;;;;;6.50;3.30;;;;;;;7.22;30.09;97043.41;5052607;28;20047;-68
2021/12/20 07:57:59;;;;;;;5.17;2.87;;;;;;;7.26;27.60;97055.22;5086115;28;20082;-69
2021/12/20 08:00:25;;;;;;;5.50;3.07;;;;;;;7.24;28.55;97049.31;5086804;28;20040;-70
2021/12/20 08:02:51;;;;;;;5.13;2.70;;;;;;;7.31;29.10;97056.22;5085660;28;20135;-70
2021/12/20 08:05:19;;;;;;;4.77;2.93;;;;;;;7.37;29.77;97054.59;5084535;28;20067;-68
2021/12/20 08:07:48;;;;;;;7.83;3.43;;;;;;;7.50;28.16;97060.75;5085701;28;20056;-68
2021/12/20 08:10:14;;;;;;;6.47;3.00;;;;;;;7.27;29.70;97059.47;5069669;28;20078;-68
2021/12/20 08:12:41;;;;;;;7.43;2.90;;;;;;;7.46;29.19;97071.88;5068717;28;20153;-66
2021/12/20 08:15:08;;;;;;;6.63;3.00;;;;;;;7.67;29.59;97069.09;5069255;28;20044;-68
2021/12/20 08:17:35;;;;;;;6.33;3.10;;;;;;;7.58;28.51;97068.44;5085658;28;20496;-68
2021/12/20 08:20:01;;;;;;;5.63;3.07;;;;;;;7.47;29.45;97078.81;5069297;28;20075;-68
2021/12/20 08:22:29;;;;;;;5.33;3.53;;;;;;;7.70;28.73;97085.34;5087225;28;20036;-68
2021/12/20 08:24:55;;;;;;;4.10;2.87;;;;;;;7.60;29.33;97078.81;5069105;28;20408;-68
2021/12/20 08:27:21;;;;;;;5.77;3.50;;;;;;;7.68;28.81;97081.25;5087266;28;20036;-68
2021/12/20 08:29:47;;;;;;;6.57;3.40;;;;;;;7.76;28.47;97089.81;5086849;28;20049;-67
2021/12/20 08:32:12;;;;;;;4.67;3.17;;;;;;;7.71;29.23;97094.88;5085566;28;20181;-68
2021/12/20 08:34:38;;;;;;;4.87;3.33;;;;;;;7.84;28.77;97088.81;5086071;28;20074;-68
2021/12/20 08:37:04;;;;;;;6.30;3.20;;;;;;;7.96;28.57;97092.47;5068803;28;20040;-70
2021/12/20 08:39:31;;;;;;;9.00;3.00;;;;;;;8.14;29.73;97084.72;5068966;28;20515;-69
2021/12/20 08:41:58;;;;;;;5.33;2.83;;;;;;;8.32;29.31;97096.31;5085524;28;20499;-68
2021/12/20 08:44:24;;;;;;;5.83;3.30;;;;;;;8.50;28.83;97112.38;5102637;28;20032;-68
2021/12/20 08:46:54;;;;;;;6.57;3.10;;;;;;;8.50;27.00;97101.78;5085186;28;20138;-68
2021/12/20 08:49:20;;;;;;;4.93;3.20;;;;;;;8.73;28.29;97113.75;5086600;28;20071;-68
2021/12/20 08:51:46;;;;;;;4.73;2.57;;;;;;;8.69;29.16;97109.91;5086564;28;20036;-68
2021/12/20 08:54:13;;;;;;;5.70;3.17;;;;;;;9.31;27.08;97118.00;5085543;28;20043;-68
2021/12/20 08:56:39;;;;;;;4.83;3.10;;;;;;;9.11;26.62;97130.53;5086855;28;20048;-68
2021/12/20 08:59:05;;;;;;;5.77;3.43;;;;;;;9.49;27.13;97123.41;5089975;28;20411;-69
2021/12/20 09:01:31;;;;;;;4.60;3.10;;;;;;;9.27;26.16;97119.47;5089415;28;20147;-68
2021/12/20 09:03:57;;;;;;;4.60;3.00;;;;;;;9.24;26.75;97123.31;5072495;28;20484;-69
2021/12/20 09:06:25;;;;;;;7.07;3.40;;;;;;;9.60;28.15;97122.75;5089086;28;20113;-68
2021/12/20 09:08:54;;;;;;;6.83;3.43;;;;;;;9.58;27.04;97117.66;5072058;28;20055;-68
2021/12/20 09:11:22;;;;;;;5.17;3.40;;;;;;;9.73;27.07;97128.78;5090255;28;20043;-68
2021/12/20 09:13:48;;;;;;;7.07;3.73;;;;;;;9.26;25.92;97139.00;5105788;28;20044;-68
2021/12/20 09:16:15;;;;;;;7.47;3.60;;;;;;;9.33;28.82;97134.50;5089235;28;20052;-67
2021/12/20 09:18:41;;;;;;;5.90;3.10;;;;;;;9.52;27.36;97141.53;5089135;28;20611;-66
2021/12/20 09:21:11;;;;;;;5.53;3.30;;;;;;;9.39;27.27;97146.91;5072258;28;20044;-67
2021/12/20 09:23:38;;;;;;;4.43;3.27;;;;;;;9.75;28.46;97145.28;5073197;28;20847;-68
2021/12/20 09:26:05;;;;;;;5.20;3.20;;;;;;;9.70;27.51;97152.25;5072129;28;20044;-68
2021/12/20 09:28:31;;;;;;;5.40;3.87;;;;;;;9.63;26.98;97151.47;5071995;28;20089;-69
2021/12/20 09:30:57;;;;;;;7.00;3.17;;;;;;;9.53;28.14;97159.88;5089006;28;20047;-68
2021/12/20 09:33:24;;;;;;;6.47;3.27;;;;;;;9.67;27.41;97157.97;5089159;28;20365;-69
2021/12/20 09:35:51;;;;;;;6.70;3.07;;;;;;;9.93;26.41;97152.53;5071725;28;20134;-67
2021/12/20 09:38:18;;;;;;;5.43;3.47;;;;;;;9.71;26.65;97156.53;5088285;28;20416;-68
2021/12/20 09:41:59;;;;;;;6.30;3.57;;;;;;;9.94;26.12;97173.53;5101294;28;20036;-67
2021/12/20 09:43:51;;;;;;;5.83;3.63;;;;;;;10.12;26.46;97178.94;5083288;28;20056;-68
2021/12/20 09:46:21;;;;;;;6.47;3.03;;;;;;;9.83;28.29;97174.19;5055350;28;20113;-68
2021/12/20 09:48:49;;;;;;;6.77;3.57;;;;;;;10.02;27.55;97175.88;5088072;28;20070;-69
2021/12/20 09:51:17;;;;;;;6.70;3.93;;;;;;;9.92;27.25;97175.56;5074759;28;20123;-68
2021/12/20 09:53:43;;;;;;;6.37;3.43;;;;;;;9.79;27.23;97180.91;5071622;28;20058;-67
2021/12/20 09:56:09;;;;;;;7.23;3.90;;;;;;;9.79;26.02;97178.28;5071861;28;20085;-69
2021/12/20 09:58:41;;;;;;;5.60;3.23;;;;;;;10.28;25.42;97185.53;5105354;28;20075;-67
2021/12/20 10:01:09;;;;;;;10.07;3.90;;;;;;;10.00;26.22;97190.41;5071549;28;20039;-68
2021/12/20 10:03:36;;;;;;;8.80;4.30;;;;;;;9.44;28.13;97195.56;5089250;28;20214;-67
2021/12/20 10:06:02;;;;;;;7.90;3.80;;;;;;;9.60;27.66;97192.47;5052917;28;20135;-67
2021/12/20 10:08:34;;;;;;;6.13;3.70;;;;;;;9.28;26.92;97174.88;5105163;28;20458;-66
2021/12/20 10:11:01;;;;;;;;;;;;;;;10.27;26.31;97203.28;5039043;28;20480;-66
2021/12/20 10:13:28;;;;;;;5.87;3.23;;;;;;;9.26;28.77;97195.44;5053864;28;19920;-68
2021/12/20 10:15:56;;;;;;;7.13;3.73;;;;;;;9.01;24.94;97180.47;5087785;28;20040;-66
2021/12/20 10:18:23;;;;;;;8.33;3.90;;;;;;;9.05;27.16;97218.72;5088045;28;20454;-66
2021/12/20 10:20:52;;;;;;;4.93;3.50;;;;;;;9.38;26.78;97217.59;5070923;28;20044;-66
2021/12/20 10:23:22;;;;;;;6.73;3.87;;;;;;;9.55;26.84;97207.34;5104702;28;20050;-67
2021/12/20 10:25:54;;;;;;;8.38;4.65;;;;;;;9.43;28.21;97227.56;5088914;28;20055;-66
2021/12/20 10:28:23;;;;;;;8.70;3.83;;;;;;;9.27;26.90;97223.53;5089129;28;20466;-70
2021/12/20 10:31:04;;;;;;;6.40;3.07;;;;;;;9.36;27.29;97211.72;5087308;28;20469;-73
2021/12/20 10:33:30;;;;;;;4.68;3.10;;;;;;;8.81;26.41;97237.91;5071037;28;20097;-70
2021/12/20 10:36:09;;;;;;;5.93;3.33;;;;;;;9.14;25.45;97236.81;5087824;28;20052;-71
2021/12/20 10:38:38;;;;;;;6.40;3.53;;;;;;;8.99;27.33;97246.84;5069680;28;20073;-71
2021/12/20 10:41:17;;;;;;;5.43;3.20;;;;;;;9.05;26.11;97261.91;5085541;28;20040;-71
2021/12/20 10:43:54;;;;;;;8.37;3.90;;;;;;;9.10;27.39;97262.06;5086426;28;20518;-71
2021/12/20 10:46:26;;;;;;;5.13;3.30;;;;;;;8.36;26.70;97269.41;5069170;28;20453;-71
2021/12/20 10:49:14;;;;;;;5.97;3.40;;;;;;;9.15;27.15;97277.38;5068281;28;20089;-70
2021/12/20 10:51:44;;;;;;;6.40;3.43;;;;;;;8.78;27.61;97262.13;5085716;28;20089;-71
2021/12/20 10:54:13;;;;;;;6.77;3.33;;;;;;;8.55;28.19;97259.88;5052288;28;20048;-71
2021/12/20 10:56:56;;;;;;;7.57;3.53;;;;;;;8.96;27.91;97270.25;5071264;28;20089;-71
2021/12/20 10:59:23;;;;;;;5.13;3.20;;;;;;;8.48;27.72;97267.00;5070799;28;20155;-71
2021/12/20 11:04:36;;;;;;;7.23;3.23;;;;;;;8.22;27.28;97241.34;5055587;28;20082;-71
2021/12/20 11:09:37;;;;;;;5.43;3.20;;;;;;;7.88;28.13;97286.38;5070955;28;20063;-72
2021/12/20 11:12:13;;;;;;;5.90;3.73;;;;;;;8.35;27.02;97288.13;5053452;28;20118;-71
2021/12/20 11:14:45;;;;;;;5.40;3.23;;;;;;;8.28;27.27;97297.88;5070095;28;20142;-72
2021/12/20 11:17:17;;;;;;;6.30;2.90;;;;;;;8.22;27.64;97265.16;5088127;28;20032;-71
2021/12/20 11:19:51;;;;;;;4.63;3.17;;;;;;;8.24;27.81;97294.81;5069538;28;20036;-71
2021/12/20 11:22:24;;;;;;;4.57;3.07;;;;;;;8.28;28.48;97304.00;5052341;28;20802;-71
2021/12/20 11:24:56;;;;;;;5.60;3.00;;;;;;;8.22;28.36;97299.50;5069987;28;20039;-73
2021/12/20 11:27:29;;;;;;;5.00;3.20;;;;;;;7.93;27.55;97283.13;5053315;28;20042;-72
2021/12/20 11:29:57;;;;;;;5.10;3.20;;;;;;;7.84;27.18;97298.31;5052972;28;20059;-69
2021/12/20 11:32:25;;;;;;;5.27;2.87;;;;;;;7.65;28.82;97288.50;5069503;28;20427;-70
2021/12/20 11:34:52;;;;;;;5.40;2.93;;;;;;;7.32;29.08;97316.56;5036119;28;20048;-70
2021/12/20 11:37:20;;;;;;;5.23;3.20;;;;;;;7.66;28.29;97295.41;5087295;28;20046;-69
2021/12/20 11:39:47;;;;;;;6.30;3.20;;;;;;;7.59;28.55;97330.72;5069237;28;20040;-70
2021/12/20 11:42:14;;;;;;;5.40;3.27;;;;;;;7.58;28.95;97331.75;5052858;28;20035;-69
2021/12/20 11:44:43;;;;;;;5.73;3.13;;;;;;;7.80;28.55;97331.44;5052690;28;20043;-70
2021/12/20 11:47:24;;;;;;;5.47;3.40;;;;;;;7.92;26.80;97345.72;5036442;28;20475;-70
2021/12/20 11:49:57;;;;;;;6.30;3.00;;;;;;;7.58;27.93;97326.47;5052759;28;20047;-68
2021/12/20 11:52:39;;;;;;;6.37;2.90;;;;;;;7.48;28.39;97342.66;5072120;28;20043;-69
2021/12/20 11:55:27;;;;;;;4.37;2.90;;;;;;;7.62;27.52;97343.53;5071972;28;20040;-66
2021/12/20 11:57:54;;;;;;;3.80;2.60;;;;;;;7.20;28.35;97346.31;5089702;28;20169;-68
2021/12/20 12:00:24;;;;;;;4.07;2.87;;;;;;;7.30;28.20;97344.16;5071962;28;20093;-68
2021/12/20 12:02:53;;;;;;;4.83;3.00;;;;;;;7.27;26.17;97355.13;5054864;28;20083;-69